createdAt,value
2023-04-01T00:01:41.468Z,22.94
2023-04-01T00:05:41.945Z,22.93
2023-04-01T00:09:41.397Z,22.92
2023-04-01T00:13:41.356Z,22.92
2023-04-01T00:17:41.462Z,22.92
2023-04-01T00:21:41.425Z,22.91
2023-04-01T00:25:41.419Z,22.90
2023-04-01T00:29:41.239Z,22.90
2023-04-01T00:33:41.177Z,22.89
2023-04-01T00:37:41.426Z,22.89
2023-04-01T00:41:41.113Z,22.89
2023-04-01T00:45:41.464Z,22.88
2023-04-01T00:49:41.028Z,22.88
2023-04-01T00:53:41.008Z,22.87
2023-04-01T00:57:41.437Z,22.85
2023-04-01T01:01:41.016Z,22.85
2023-04-01T01:05:48.979Z,22.84
2023-04-01T01:09:41.927Z,22.85
2023-04-01T01:13:40.840Z,22.84
2023-04-01T01:17:41.499Z,22.84
2023-04-01T01:21:41.422Z,22.83
2023-04-01T01:25:41.454Z,22.82
2023-04-01T01:29:40.921Z,22.82
2023-04-01T01:33:40.883Z,22.82
2023-04-01T01:37:40.956Z,22.81
2023-04-01T01:41:40.798Z,22.81
2023-04-01T01:45:40.969Z,22.81
2023-04-01T01:49:40.733Z,22.80
2023-04-01T01:53:40.697Z,22.80
2023-04-01T01:57:40.753Z,22.80
2023-04-01T02:01:41.010Z,22.78
2023-04-01T02:05:41.487Z,22.78
2023-04-01T02:09:41.387Z,22.78
2023-04-01T02:13:41.555Z,22.78
2023-04-01T02:17:42.005Z,22.78
2023-04-01T02:21:41.954Z,22.77
2023-04-01T02:25:42.462Z,22.77
2023-04-01T02:29:42.089Z,22.76
2023-04-01T02:33:42.462Z,22.76
2023-04-01T02:37:42.292Z,22.76
2023-04-01T02:41:42.458Z,22.75
2023-04-01T02:45:42.494Z,22.75
2023-04-01T02:49:42.427Z,22.75
2023-04-01T02:53:42.523Z,22.74
2023-04-01T02:57:42.513Z,22.75
2023-04-01T03:01:42.474Z,22.74
2023-04-01T03:05:42.505Z,22.73
2023-04-01T03:09:42.492Z,22.73
2023-04-01T03:13:42.497Z,22.72
2023-04-01T03:17:42.522Z,22.73
2023-04-01T03:21:42.477Z,22.72
2023-04-01T03:25:42.400Z,22.72
2023-04-01T03:29:42.513Z,22.71
2023-04-01T03:33:42.499Z,22.70
2023-04-01T03:37:42.514Z,22.71
2023-04-01T03:41:42.526Z,22.70
2023-04-01T03:45:42.386Z,22.70
2023-04-01T03:49:42.491Z,22.69
2023-04-01T03:53:42.491Z,22.69
2023-04-01T03:57:42.408Z,22.69
2023-04-01T04:01:42.394Z,22.69
2023-04-01T04:05:42.372Z,22.68
2023-04-01T04:09:42.498Z,22.67
2023-04-01T04:13:42.337Z,22.68
2023-04-01T04:17:42.610Z,22.68
2023-04-01T04:21:42.315Z,22.67
2023-04-01T04:25:42.286Z,22.67
2023-04-01T04:29:42.511Z,22.67
2023-04-01T04:33:42.254Z,22.66
2023-04-01T04:37:42.536Z,22.65
2023-04-01T04:41:42.526Z,22.66
2023-04-01T04:45:42.183Z,22.65
2023-04-01T04:49:42.559Z,22.65
2023-04-01T04:53:42.177Z,22.65
2023-04-01T04:57:42.132Z,22.64
2023-04-01T05:01:42.151Z,22.64
2023-04-01T05:05:42.521Z,22.64
2023-04-01T05:09:42.084Z,22.64
2023-04-01T05:13:42.571Z,22.63
2023-04-01T05:17:42.143Z,22.63
2023-04-01T05:21:42.035Z,22.63
2023-04-01T05:25:42.040Z,22.63
2023-04-01T05:29:42.092Z,22.63
2023-04-01T05:33:42.060Z,22.63
2023-04-01T05:37:42.015Z,22.63
2023-04-01T05:41:41.947Z,22.63
2023-04-01T05:45:42.045Z,22.64
2023-04-01T05:49:42.066Z,22.64
2023-04-01T05:53:41.902Z,22.65
2023-04-01T05:57:42.178Z,22.66
2023-04-01T06:01:41.829Z,22.67
2023-04-01T06:05:42.067Z,22.67
2023-04-01T06:09:41.843Z,22.68
2023-04-01T06:13:42.078Z,22.71
2023-04-01T06:17:41.953Z,22.75
2023-04-01T06:21:41.997Z,22.79
2023-04-01T06:25:42.568Z,22.80
2023-04-01T06:29:42.606Z,22.79
2023-04-01T06:33:42.451Z,22.80
2023-04-01T06:37:42.563Z,22.79
2023-04-01T06:41:43.039Z,22.77
2023-04-01T06:45:43.141Z,22.78
2023-04-01T06:49:43.076Z,22.80
2023-04-01T06:53:43.026Z,22.85
2023-04-01T06:57:43.250Z,22.91
2023-04-01T07:01:43.269Z,22.96
2023-04-01T07:05:43.627Z,22.99
2023-04-01T07:09:43.131Z,23.01
2023-04-01T07:13:43.605Z,23.01
2023-04-01T07:17:43.113Z,23.03
2023-04-01T07:21:43.099Z,23.06
2023-04-01T07:25:43.087Z,23.09
2023-04-01T07:29:43.120Z,23.21
2023-04-01T07:33:42.938Z,23.23
2023-04-01T07:37:43.112Z,23.17
2023-04-01T07:41:43.612Z,23.28
2023-04-01T07:45:43.598Z,23.31
2023-04-01T07:49:44.073Z,23.47
2023-04-01T07:53:43.941Z,23.63
2023-04-01T07:57:44.177Z,23.46
2023-04-01T08:01:44.365Z,23.53
2023-04-01T08:05:45.657Z,24.20
2023-04-01T08:09:44.586Z,25.68
2023-04-01T08:13:44.764Z,26.11
2023-04-01T08:17:44.861Z,27.83
2023-04-01T08:21:45.147Z,26.48
2023-04-01T08:25:45.106Z,25.47
2023-04-01T08:29:44.991Z,24.95
2023-04-01T08:33:45.102Z,24.59
2023-04-01T08:37:46.130Z,24.36
2023-04-01T08:41:45.589Z,24.22
2023-04-01T08:45:45.653Z,24.14
2023-04-01T08:49:45.513Z,24.09
2023-04-01T08:53:45.685Z,24.07
2023-04-01T08:57:46.130Z,24.08
2023-04-01T09:01:46.041Z,24.12
2023-04-01T09:05:46.669Z,24.13
2023-04-01T09:09:46.476Z,24.16
2023-04-01T09:13:46.674Z,24.22
2023-04-01T09:17:47.169Z,24.26
2023-04-01T09:21:47.149Z,24.31
2023-04-01T09:25:47.657Z,24.35
2023-04-01T09:29:47.447Z,24.40
2023-04-01T09:33:47.574Z,24.42
2023-04-01T09:37:48.144Z,24.45
2023-04-01T09:41:48.176Z,24.46
2023-04-01T09:45:48.145Z,24.48
2023-04-01T09:49:48.106Z,24.50
2023-04-01T09:53:48.231Z,24.49
2023-04-01T09:57:48.656Z,24.43
2023-04-01T10:01:48.563Z,24.39
2023-04-01T10:05:48.704Z,24.32
2023-04-01T10:09:48.783Z,24.26
2023-04-01T10:13:49.158Z,24.21
2023-04-01T10:17:49.681Z,24.16
2023-04-01T10:21:49.667Z,24.13
2023-04-01T10:25:49.167Z,24.08
2023-04-01T10:29:49.075Z,24.07
2023-04-01T10:33:49.168Z,24.05
2023-04-01T10:37:49.161Z,24.02
2023-04-01T10:41:49.180Z,24.05
2023-04-01T10:45:49.014Z,24.05
2023-04-01T10:49:48.969Z,24.02
2023-04-01T10:53:49.009Z,24.01
2023-04-01T10:57:49.178Z,23.99
2023-04-01T11:01:54.859Z,23.96
2023-04-01T11:05:49.859Z,23.96
2023-04-01T11:09:48.892Z,23.98
2023-04-01T11:13:48.851Z,23.99
2023-04-01T11:17:49.225Z,24.03
2023-04-01T11:21:49.178Z,24.06
2023-04-01T11:25:49.163Z,24.08
2023-04-01T11:29:59.229Z,24.06
2023-04-01T11:33:49.683Z,24.02
2023-04-01T11:37:48.642Z,23.99
2023-04-01T11:41:49.201Z,23.96
2023-04-01T11:45:48.935Z,23.96
2023-04-01T11:49:49.140Z,23.95
2023-04-01T11:53:49.719Z,23.95
2023-04-01T11:57:49.263Z,23.92
2023-04-01T12:01:49.271Z,23.90
2023-04-01T12:05:49.280Z,23.89
2023-04-01T12:09:49.685Z,23.88
2023-04-01T12:13:49.302Z,23.87
2023-04-01T12:17:49.807Z,23.86
2023-04-01T12:21:49.326Z,23.85
2023-04-01T12:25:49.364Z,23.83
2023-04-01T12:29:49.679Z,23.82
2023-04-01T12:33:49.709Z,23.80
2023-04-01T12:37:49.388Z,23.78
2023-04-01T12:41:49.704Z,23.75
2023-04-01T12:45:49.294Z,23.73
2023-04-01T12:49:49.715Z,23.71
2023-04-01T12:53:49.748Z,23.68
2023-04-01T12:57:49.304Z,23.66
2023-04-01T13:01:56.745Z,23.65
2023-04-01T13:05:49.283Z,23.63
2023-04-01T13:09:52.147Z,23.61
2023-04-01T13:13:49.227Z,23.59
2023-04-01T13:17:49.268Z,23.58
2023-04-01T13:21:49.225Z,23.57
2023-04-01T13:25:51.096Z,23.56
2023-04-01T13:29:50.221Z,23.55
2023-04-01T13:33:49.245Z,23.54
2023-04-01T13:37:49.254Z,23.52
2023-04-01T13:41:48.984Z,23.51
2023-04-01T13:45:49.268Z,23.49
2023-04-01T13:49:49.264Z,23.48
2023-04-01T13:53:49.255Z,23.47
2023-04-01T13:57:49.288Z,23.46
2023-04-01T14:01:49.203Z,23.45
2023-04-01T14:05:49.292Z,23.43
2023-04-01T14:09:49.767Z,23.42
2023-04-01T14:13:49.761Z,23.42
2023-04-01T14:17:49.766Z,23.42
2023-04-01T14:21:49.674Z,23.41
2023-04-01T14:25:49.809Z,23.41
2023-04-01T14:29:50.259Z,23.41
2023-04-01T14:33:50.282Z,23.40
2023-04-01T14:37:50.263Z,23.39
2023-04-01T14:41:50.216Z,23.37
2023-04-01T14:45:50.393Z,23.36
2023-04-01T14:49:50.758Z,23.35
2023-04-01T14:53:50.622Z,23.34
2023-04-01T14:57:50.797Z,23.32
2023-04-01T15:01:50.951Z,23.31
2023-04-01T15:05:51.030Z,23.31
2023-04-01T15:09:51.283Z,23.30
2023-04-01T15:13:51.784Z,23.30
2023-04-01T15:17:51.497Z,23.29
2023-04-01T15:21:51.783Z,23.27
2023-04-01T15:25:51.838Z,23.26
2023-04-01T15:29:52.334Z,23.26
2023-04-01T15:33:52.148Z,23.24
2023-04-01T15:37:52.331Z,23.25
2023-04-01T15:41:52.829Z,23.23
2023-04-01T15:45:52.795Z,23.22
2023-04-01T15:49:52.885Z,23.20
2023-04-01T15:53:53.317Z,23.20
2023-04-01T15:57:53.268Z,23.18
2023-04-01T16:01:53.452Z,23.17
2023-04-01T16:05:53.661Z,23.16
2023-04-01T16:09:54.329Z,23.15
2023-04-01T16:13:54.058Z,23.14
2023-04-01T16:17:54.262Z,23.13
2023-04-01T16:21:54.439Z,23.12
2023-04-01T16:25:54.821Z,23.11
2023-04-01T16:29:54.872Z,23.11
2023-04-01T16:33:55.283Z,23.10
2023-04-01T16:37:55.317Z,23.10
2023-04-01T16:41:55.542Z,23.09
2023-04-01T16:45:55.821Z,23.08
2023-04-01T16:49:56.308Z,23.08
2023-04-01T16:53:56.211Z,23.07
2023-04-01T16:57:56.155Z,23.06
2023-04-01T17:01:56.125Z,23.06
2023-04-01T17:05:56.321Z,23.04
2023-04-01T17:09:56.400Z,23.03
2023-04-01T17:13:56.036Z,23.02
2023-04-01T17:17:56.434Z,23.02
2023-04-01T17:21:55.985Z,23.01
2023-04-01T17:25:56.319Z,23.00
2023-04-01T17:29:56.407Z,23.00
2023-04-01T17:33:55.981Z,22.98
2023-04-01T17:37:56.360Z,22.98
2023-04-01T17:41:55.902Z,22.97
2023-04-01T17:45:56.346Z,22.97
2023-04-01T17:49:56.340Z,22.96
2023-04-01T17:53:55.830Z,22.96
2023-04-01T17:57:55.885Z,22.96
2023-04-01T18:01:55.793Z,22.94
2023-04-01T18:05:55.930Z,22.94
2023-04-01T18:09:55.936Z,22.93
2023-04-01T18:13:55.888Z,22.92
2023-04-01T18:17:55.886Z,22.92
2023-04-01T18:21:55.839Z,22.92
2023-04-01T18:25:55.834Z,22.92
2023-04-01T18:29:55.905Z,22.91
2023-04-01T18:33:55.693Z,22.91
2023-04-01T18:37:55.884Z,22.90
2023-04-01T18:41:55.646Z,22.89
2023-04-01T18:45:55.913Z,22.89
2023-04-01T18:49:55.551Z,22.89
2023-04-01T18:53:55.522Z,22.88
2023-04-01T18:57:55.873Z,22.88
2023-04-01T19:01:55.734Z,22.87
2023-04-01T19:05:56.382Z,22.87
2023-04-01T19:09:56.158Z,22.87
2023-04-01T19:13:56.415Z,22.85
2023-04-01T19:17:56.197Z,22.84
2023-04-01T19:21:56.388Z,22.85
2023-04-01T19:25:56.043Z,22.84
2023-04-01T19:29:55.965Z,22.84
2023-04-01T19:33:56.370Z,22.83
2023-04-01T19:37:56.377Z,22.83
2023-04-01T19:41:55.914Z,22.83
2023-04-01T19:45:55.908Z,22.82
2023-04-01T19:49:55.944Z,22.82
2023-04-01T19:53:56.380Z,22.82
2023-04-01T19:57:56.376Z,22.81
2023-04-01T20:01:55.883Z,22.80
2023-04-01T20:05:55.854Z,22.81
2023-04-01T20:09:55.787Z,22.80
2023-04-01T20:13:55.863Z,22.80
2023-04-01T20:17:56.015Z,22.79
2023-04-01T20:21:55.908Z,22.80
2023-04-01T20:25:55.628Z,22.79
2023-04-01T20:29:55.712Z,22.78
2023-04-01T20:33:55.958Z,22.79
2023-04-01T20:37:55.942Z,22.78
2023-04-01T20:41:56.398Z,22.78
2023-04-01T20:45:56.251Z,22.76
2023-04-01T20:49:56.466Z,22.77
2023-04-01T20:53:56.281Z,22.76
2023-04-01T20:57:56.422Z,22.76
2023-04-01T21:01:56.408Z,22.76
2023-04-01T21:05:56.381Z,22.75
2023-04-01T21:09:56.449Z,22.75
2023-04-01T21:13:56.422Z,22.75
2023-04-01T21:17:56.435Z,22.74
2023-04-01T21:21:56.423Z,22.73
2023-04-01T21:25:56.358Z,22.73
2023-04-01T21:29:56.389Z,22.73
2023-04-01T21:33:56.365Z,22.73
2023-04-01T21:37:56.414Z,22.73
2023-04-01T21:41:56.462Z,22.72
2023-04-01T21:45:56.468Z,22.72
2023-04-01T21:49:56.922Z,22.71
2023-04-01T21:53:56.440Z,22.70
2023-04-01T21:57:56.429Z,22.72
2023-04-01T22:01:56.414Z,22.71
2023-04-01T22:05:56.437Z,22.71
2023-04-01T22:09:56.360Z,22.71
2023-04-01T22:13:56.445Z,22.69
2023-04-01T22:17:56.393Z,22.69
2023-04-01T22:21:56.322Z,22.69
2023-04-01T22:25:58.809Z,22.70
2023-04-01T22:29:56.260Z,22.69
2023-04-01T22:33:56.219Z,22.68
2023-04-01T22:37:56.440Z,22.69
2023-04-01T22:41:56.168Z,22.68
2023-04-01T22:45:56.511Z,22.68
2023-04-01T22:49:56.446Z,22.67
2023-04-01T22:53:56.053Z,22.67
2023-04-01T22:57:56.481Z,22.67
2023-04-01T23:01:56.003Z,22.67
2023-04-01T23:05:55.982Z,22.66
2023-04-01T23:09:55.939Z,22.66
2023-04-01T23:13:55.855Z,22.65
2023-04-01T23:17:57.534Z,22.65
2023-04-01T23:21:55.790Z,22.65
2023-04-01T23:25:55.813Z,22.65
2023-04-01T23:29:55.970Z,22.64
2023-04-01T23:33:57.460Z,22.64
2023-04-01T23:37:55.677Z,22.64
2023-04-01T23:41:55.977Z,22.64
2023-04-01T23:45:56.141Z,22.63
2023-04-01T23:49:55.545Z,22.63
2023-04-01T23:53:55.975Z,22.63
2023-04-01T23:57:55.451Z,22.63
